sensor_id;sensor_type;location;lat;lon;timestamp;temperature;humidity
19007;DHT22;9636;47.382;8.480;2022-07-01T00:00:29;15.40;99.90
19007;DHT22;9636;47.382;8.480;2022-07-01T00:02:56;15.20;99.90
19007;DHT22;9636;47.382;8.480;2022-07-01T00:05:22;15.20;99.90
19007;DHT22;9636;47.382;8.480;2022-07-01T00:07:49;15.30;99.90
19007;DHT22;9636;47.382;8.480;2022-07-01T00:10:16;15.50;99.90
19007;DHT22;9636;47.382;8.480;2022-07-01T00:12:43;15.50;99.90
19007;DHT22;9636;47.382;8.480;2022-07-01T00:15:12;15.60;99.90
19007;DHT22;9636;47.382;8.480;2022-07-01T00:17:39;15.50;99.90
19007;DHT22;9636;47.382;8.480;2022-07-01T00:20:07;15.60;99.90
19007;DHT22;9636;47.382;8.480;2022-07-01T00:22:34;15.70;99.90
19007;DHT22;9636;47.382;8.480;2022-07-01T00:25:01;15.50;99.90
19007;DHT22;9636;47.382;8.480;2022-07-01T00:27:28;15.40;99.90
19007;DHT22;9636;47.382;8.480;2022-07-01T00:29:55;15.30;99.90
19007;DHT22;9636;47.382;8.480;2022-07-01T00:32:23;15.20;99.90
19007;DHT22;9636;47.382;8.480;2022-07-01T00:34:50;15.00;99.90
19007;DHT22;9636;47.382;8.480;2022-07-01T00:37:16;14.90;99.90
19007;DHT22;9636;47.382;8.480;2022-07-01T00:39:43;14.80;99.90
19007;DHT22;9636;47.382;8.480;2022-07-01T00:42:10;14.90;99.90
19007;DHT22;9636;47.382;8.480;2022-07-01T00:44:37;14.90;99.90
19007;DHT22;9636;47.382;8.480;2022-07-01T00:47:09;14.90;99.90
19007;DHT22;9636;47.382;8.480;2022-07-01T00:49:38;14.80;99.90
19007;DHT22;9636;47.382;8.480;2022-07-01T00:52:07;14.80;99.90
19007;DHT22;9636;47.382;8.480;2022-07-01T00:54:36;14.90;99.90
19007;DHT22;9636;47.382;8.480;2022-07-01T00:57:06;14.90;99.90
19007;DHT22;9636;47.382;8.480;2022-07-01T00:59:33;14.90;99.90
19007;DHT22;9636;47.382;8.480;2022-07-01T01:02:01;14.90;99.90
19007;DHT22;9636;47.382;8.480;2022-07-01T01:04:28;15.00;99.90
19007;DHT22;9636;47.382;8.480;2022-07-01T01:06:56;15.20;99.90
19007;DHT22;9636;47.382;8.480;2022-07-01T01:09:23;15.20;99.90
19007;DHT22;9636;47.382;8.480;2022-07-01T01:11:50;15.20;99.90
19007;DHT22;9636;47.382;8.480;2022-07-01T01:14:17;15.20;99.90
19007;DHT22;9636;47.382;8.480;2022-07-01T01:16:44;15.20;99.90
19007;DHT22;9636;47.382;8.480;2022-07-01T01:19:11;15.20;99.90
19007;DHT22;9636;47.382;8.480;2022-07-01T01:21:39;15.10;99.90
19007;DHT22;9636;47.382;8.480;2022-07-01T01:24:07;15.00;99.90
19007;DHT22;9636;47.382;8.480;2022-07-01T01:26:34;15.30;99.90
19007;DHT22;9636;47.382;8.480;2022-07-01T01:29:04;15.20;99.90
19007;DHT22;9636;47.382;8.480;2022-07-01T01:31:33;15.30;99.90
19007;DHT22;9636;47.382;8.480;2022-07-01T01:34:00;15.10;99.90
19007;DHT22;9636;47.382;8.480;2022-07-01T01:36:27;15.30;99.90
19007;DHT22;9636;47.382;8.480;2022-07-01T01:38:55;15.40;99.90
19007;DHT22;9636;47.382;8.480;2022-07-01T01:41:24;15.50;99.90
19007;DHT22;9636;47.382;8.480;2022-07-01T01:43:51;15.40;99.90
19007;DHT22;9636;47.382;8.480;2022-07-01T01:46:17;15.20;99.90
19007;DHT22;9636;47.382;8.480;2022-07-01T01:48:44;15.40;99.90
19007;DHT22;9636;47.382;8.480;2022-07-01T01:51:11;15.40;99.90
19007;DHT22;9636;47.382;8.480;2022-07-01T01:53:38;15.40;99.90
19007;DHT22;9636;47.382;8.480;2022-07-01T01:56:06;15.40;99.90
19007;DHT22;9636;47.382;8.480;2022-07-01T01:58:33;15.30;99.90
19007;DHT22;9636;47.382;8.480;2022-07-01T02:01:00;15.30;99.90
19007;DHT22;9636;47.382;8.480;2022-07-01T02:03:27;15.40;99.90
19007;DHT22;9636;47.382;8.480;2022-07-01T02:05:54;15.30;99.90
19007;DHT22;9636;47.382;8.480;2022-07-01T02:08:21;15.20;99.90
19007;DHT22;9636;47.382;8.480;2022-07-01T02:10:48;15.20;99.90
19007;DHT22;9636;47.382;8.480;2022-07-01T02:13:16;15.30;99.90
19007;DHT22;9636;47.382;8.480;2022-07-01T02:15:43;15.10;99.90
19007;DHT22;9636;47.382;8.480;2022-07-01T02:18:10;15.20;99.90
19007;DHT22;9636;47.382;8.480;2022-07-01T02:20:37;15.30;99.90
19007;DHT22;9636;47.382;8.480;2022-07-01T02:23:03;15.30;99.90
19007;DHT22;9636;47.382;8.480;2022-07-01T02:25:30;15.40;99.90
19007;DHT22;9636;47.382;8.480;2022-07-01T02:27:57;15.40;99.90
19007;DHT22;9636;47.382;8.480;2022-07-01T02:30:26;15.40;99.90
19007;DHT22;9636;47.382;8.480;2022-07-01T02:32:53;15.50;99.90
19007;DHT22;9636;47.382;8.480;2022-07-01T02:35:20;15.20;99.90
19007;DHT22;9636;47.382;8.480;2022-07-01T02:37:47;15.10;99.90
19007;DHT22;9636;47.382;8.480;2022-07-01T02:40:14;15.00;99.90
19007;DHT22;9636;47.382;8.480;2022-07-01T02:42:41;14.90;99.90
19007;DHT22;9636;47.382;8.480;2022-07-01T02:45:08;14.80;99.90
19007;DHT22;9636;47.382;8.480;2022-07-01T02:47:37;14.70;99.90
19007;DHT22;9636;47.382;8.480;2022-07-01T02:50:06;14.50;99.90
19007;DHT22;9636;47.382;8.480;2022-07-01T02:52:33;14.30;99.90
19007;DHT22;9636;47.382;8.480;2022-07-01T02:55:01;14.20;99.90
19007;DHT22;9636;47.382;8.480;2022-07-01T02:57:28;14.50;99.90
19007;DHT22;9636;47.382;8.480;2022-07-01T02:59:55;14.50;99.90
19007;DHT22;9636;47.382;8.480;2022-07-01T03:02:22;14.30;99.90
19007;DHT22;9636;47.382;8.480;2022-07-01T03:04:52;14.40;99.90
19007;DHT22;9636;47.382;8.480;2022-07-01T03:07:20;14.40;99.90
19007;DHT22;9636;47.382;8.480;2022-07-01T03:09:47;14.30;99.90
19007;DHT22;9636;47.382;8.480;2022-07-01T03:12:14;14.30;99.90
19007;DHT22;9636;47.382;8.480;2022-07-01T03:14:55;14.30;99.90
19007;DHT22;9636;47.382;8.480;2022-07-01T03:17:22;14.30;99.90
19007;DHT22;9636;47.382;8.480;2022-07-01T03:19:51;14.40;99.90
19007;DHT22;9636;47.382;8.480;2022-07-01T03:22:19;14.40;99.90
19007;DHT22;9636;47.382;8.480;2022-07-01T03:24:45;14.40;99.90
19007;DHT22;9636;47.382;8.480;2022-07-01T03:27:12;14.20;99.90
19007;DHT22;9636;47.382;8.480;2022-07-01T03:29:39;14.30;99.90
19007;DHT22;9636;47.382;8.480;2022-07-01T03:32:07;14.30;99.90
19007;DHT22;9636;47.382;8.480;2022-07-01T03:34:34;14.50;99.90
19007;DHT22;9636;47.382;8.480;2022-07-01T03:37:03;14.40;99.90
19007;DHT22;9636;47.382;8.480;2022-07-01T03:39:29;14.10;99.90
19007;DHT22;9636;47.382;8.480;2022-07-01T03:41:56;14.10;99.90
19007;DHT22;9636;47.382;8.480;2022-07-01T03:44:23;14.10;99.90
19007;DHT22;9636;47.382;8.480;2022-07-01T03:46:50;14.30;99.90
19007;DHT22;9636;47.382;8.480;2022-07-01T03:49:17;14.40;99.90
19007;DHT22;9636;47.382;8.480;2022-07-01T03:51:43;14.20;99.90
19007;DHT22;9636;47.382;8.480;2022-07-01T03:54:12;14.30;99.90
19007;DHT22;9636;47.382;8.480;2022-07-01T03:56:56;14.50;99.90
19007;DHT22;9636;47.382;8.480;2022-07-01T03:59:23;14.40;99.90
19007;DHT22;9636;47.382;8.480;2022-07-01T04:01:50;14.40;99.90
19007;DHT22;9636;47.382;8.480;2022-07-01T04:04:17;14.50;99.90
19007;DHT22;9636;47.382;8.480;2022-07-01T04:06:44;14.40;99.90
19007;DHT22;9636;47.382;8.480;2022-07-01T04:09:13;14.40;99.90
19007;DHT22;9636;47.382;8.480;2022-07-01T04:11:41;14.60;99.90
19007;DHT22;9636;47.382;8.480;2022-07-01T04:14:08;14.50;99.90
19007;DHT22;9636;47.382;8.480;2022-07-01T04:16:35;14.40;99.90
19007;DHT22;9636;47.382;8.480;2022-07-01T04:19:02;14.00;99.90
19007;DHT22;9636;47.382;8.480;2022-07-01T04:21:28;14.00;99.90
19007;DHT22;9636;47.382;8.480;2022-07-01T04:24:14;13.90;99.90
19007;DHT22;9636;47.382;8.480;2022-07-01T04:26:41;14.00;99.90
19007;DHT22;9636;47.382;8.480;2022-07-01T04:29:09;14.00;99.90
19007;DHT22;9636;47.382;8.480;2022-07-01T04:31:36;13.80;99.90
19007;DHT22;9636;47.382;8.480;2022-07-01T04:34:03;13.80;99.90
19007;DHT22;9636;47.382;8.480;2022-07-01T04:36:30;14.00;99.90
19007;DHT22;9636;47.382;8.480;2022-07-01T04:38:57;14.10;99.90
19007;DHT22;9636;47.382;8.480;2022-07-01T04:41:25;14.10;99.90
19007;DHT22;9636;47.382;8.480;2022-07-01T04:44:10;14.20;99.90
19007;DHT22;9636;47.382;8.480;2022-07-01T04:46:37;14.10;99.90
19007;DHT22;9636;47.382;8.480;2022-07-01T04:49:04;14.10;99.90
19007;DHT22;9636;47.382;8.480;2022-07-01T04:51:31;14.10;99.90
19007;DHT22;9636;47.382;8.480;2022-07-01T04:54:00;14.20;99.90
19007;DHT22;9636;47.382;8.480;2022-07-01T04:56:28;14.20;99.90
19007;DHT22;9636;47.382;8.480;2022-07-01T04:58:55;14.20;99.90
19007;DHT22;9636;47.382;8.480;2022-07-01T05:01:22;14.30;99.90
19007;DHT22;9636;47.382;8.480;2022-07-01T05:03:49;14.20;99.90
19007;DHT22;9636;47.382;8.480;2022-07-01T05:06:16;14.20;99.90
19007;DHT22;9636;47.382;8.480;2022-07-01T05:08:43;14.30;99.90
19007;DHT22;9636;47.382;8.480;2022-07-01T05:11:09;14.30;99.90
19007;DHT22;9636;47.382;8.480;2022-07-01T05:13:38;14.40;99.90
19007;DHT22;9636;47.382;8.480;2022-07-01T05:16:04;14.60;99.90
19007;DHT22;9636;47.382;8.480;2022-07-01T05:18:31;14.50;99.90
19007;DHT22;9636;47.382;8.480;2022-07-01T05:21:15;14.50;99.90
19007;DHT22;9636;47.382;8.480;2022-07-01T05:23:59;14.80;99.90
19007;DHT22;9636;47.382;8.480;2022-07-01T05:26:26;14.60;99.90
19007;DHT22;9636;47.382;8.480;2022-07-01T05:28:54;14.40;99.90
19007;DHT22;9636;47.382;8.480;2022-07-01T05:31:21;14.40;99.90
19007;DHT22;9636;47.382;8.480;2022-07-01T05:33:48;14.50;99.90
19007;DHT22;9636;47.382;8.480;2022-07-01T05:36:15;14.50;99.90
19007;DHT22;9636;47.382;8.480;2022-07-01T05:38:42;14.40;99.90
19007;DHT22;9636;47.382;8.480;2022-07-01T05:41:09;14.30;99.90
19007;DHT22;9636;47.382;8.480;2022-07-01T05:43:35;14.10;99.90
19007;DHT22;9636;47.382;8.480;2022-07-01T05:46:04;14.30;99.90
19007;DHT22;9636;47.382;8.480;2022-07-01T05:48:31;14.50;99.90
19007;DHT22;9636;47.382;8.480;2022-07-01T05:50:57;14.60;99.90
19007;DHT22;9636;47.382;8.480;2022-07-01T05:53:24;14.60;99.90
19007;DHT22;9636;47.382;8.480;2022-07-01T05:55:51;14.70;99.90
19007;DHT22;9636;47.382;8.480;2022-07-01T05:58:18;14.40;99.90
19007;DHT22;9636;47.382;8.480;2022-07-01T06:00:44;14.40;99.90
19007;DHT22;9636;47.382;8.480;2022-07-01T06:03:14;14.40;99.90
19007;DHT22;9636;47.382;8.480;2022-07-01T06:05:41;14.50;99.90
19007;DHT22;9636;47.382;8.480;2022-07-01T06:08:08;14.50;99.90
19007;DHT22;9636;47.382;8.480;2022-07-01T06:10:35;14.70;99.90
19007;DHT22;9636;47.382;8.480;2022-07-01T06:13:03;14.70;99.90
19007;DHT22;9636;47.382;8.480;2022-07-01T06:15:30;14.80;99.90
19007;DHT22;9636;47.382;8.480;2022-07-01T06:17:57;14.90;99.90
19007;DHT22;9636;47.382;8.480;2022-07-01T06:20:26;14.80;99.90
19007;DHT22;9636;47.382;8.480;2022-07-01T06:22:53;15.00;99.90
19007;DHT22;9636;47.382;8.480;2022-07-01T06:25:19;15.00;99.90
19007;DHT22;9636;47.382;8.480;2022-07-01T06:27:46;15.00;99.90
19007;DHT22;9636;47.382;8.480;2022-07-01T06:30:14;15.10;99.90
19007;DHT22;9636;47.382;8.480;2022-07-01T06:32:41;15.00;99.90
19007;DHT22;9636;47.382;8.480;2022-07-01T06:35:08;14.90;99.90
19007;DHT22;9636;47.382;8.480;2022-07-01T06:37:37;14.70;99.90
19007;DHT22;9636;47.382;8.480;2022-07-01T06:40:05;14.60;99.90
19007;DHT22;9636;47.382;8.480;2022-07-01T06:42:33;14.60;99.90
19007;DHT22;9636;47.382;8.480;2022-07-01T06:45:00;14.80;99.90
19007;DHT22;9636;47.382;8.480;2022-07-01T06:47:27;15.00;99.90
19007;DHT22;9636;47.382;8.480;2022-07-01T06:49:54;15.20;99.90
19007;DHT22;9636;47.382;8.480;2022-07-01T06:52:21;15.20;99.90
19007;DHT22;9636;47.382;8.480;2022-07-01T06:54:49;14.80;99.90
19007;DHT22;9636;47.382;8.480;2022-07-01T06:57:16;15.00;99.90
19007;DHT22;9636;47.382;8.480;2022-07-01T06:59:42;15.00;99.90
19007;DHT22;9636;47.382;8.480;2022-07-01T07:02:09;14.90;99.90
19007;DHT22;9636;47.382;8.480;2022-07-01T07:04:36;14.70;99.90
19007;DHT22;9636;47.382;8.480;2022-07-01T07:07:03;14.60;99.90
19007;DHT22;9636;47.382;8.480;2022-07-01T07:09:30;14.70;99.90
19007;DHT22;9636;47.382;8.480;2022-07-01T07:11:58;14.90;99.90
19007;DHT22;9636;47.382;8.480;2022-07-01T07:14:25;15.10;99.90
19007;DHT22;9636;47.382;8.480;2022-07-01T07:16:51;15.20;99.90
19007;DHT22;9636;47.382;8.480;2022-07-01T07:19:19;15.30;99.90
19007;DHT22;9636;47.382;8.480;2022-07-01T07:21:46;15.30;99.90
19007;DHT22;9636;47.382;8.480;2022-07-01T07:24:13;15.10;99.90
19007;DHT22;9636;47.382;8.480;2022-07-01T07:26:40;14.90;99.90
19007;DHT22;9636;47.382;8.480;2022-07-01T07:29:08;14.90;99.90
19007;DHT22;9636;47.382;8.480;2022-07-01T07:31:35;14.90;99.90
19007;DHT22;9636;47.382;8.480;2022-07-01T07:34:01;15.00;99.90
19007;DHT22;9636;47.382;8.480;2022-07-01T07:36:28;14.90;99.90
19007;DHT22;9636;47.382;8.480;2022-07-01T07:38:55;15.30;99.90
19007;DHT22;9636;47.382;8.480;2022-07-01T07:41:22;15.60;99.90
19007;DHT22;9636;47.382;8.480;2022-07-01T07:43:49;15.60;99.90
19007;DHT22;9636;47.382;8.480;2022-07-01T07:46:17;15.30;99.90
19007;DHT22;9636;47.382;8.480;2022-07-01T07:48:44;15.20;99.90
19007;DHT22;9636;47.382;8.480;2022-07-01T07:51:10;15.40;99.90
19007;DHT22;9636;47.382;8.480;2022-07-01T07:53:41;15.50;99.90
19007;DHT22;9636;47.382;8.480;2022-07-01T07:56:07;15.50;99.90
19007;DHT22;9636;47.382;8.480;2022-07-01T07:58:34;15.10;99.90
19007;DHT22;9636;47.382;8.480;2022-07-01T08:01:01;14.90;99.90
19007;DHT22;9636;47.382;8.480;2022-07-01T08:03:29;14.60;99.90
19007;DHT22;9636;47.382;8.480;2022-07-01T08:05:56;14.60;99.90
19007;DHT22;9636;47.382;8.480;2022-07-01T08:08:23;14.80;99.90
19007;DHT22;9636;47.382;8.480;2022-07-01T08:10:49;14.90;99.90
19007;DHT22;9636;47.382;8.480;2022-07-01T08:13:16;15.10;99.90
19007;DHT22;9636;47.382;8.480;2022-07-01T08:15:44;15.20;99.90
19007;DHT22;9636;47.382;8.480;2022-07-01T08:18:11;15.20;99.90
19007;DHT22;9636;47.382;8.480;2022-07-01T08:20:39;15.30;99.90
19007;DHT22;9636;47.382;8.480;2022-07-01T08:23:06;15.50;99.90
19007;DHT22;9636;47.382;8.480;2022-07-01T08:25:32;15.60;99.90
19007;DHT22;9636;47.382;8.480;2022-07-01T08:27:59;15.60;99.90
19007;DHT22;9636;47.382;8.480;2022-07-01T08:30:26;15.20;99.90
19007;DHT22;9636;47.382;8.480;2022-07-01T08:32:53;15.00;99.90
19007;DHT22;9636;47.382;8.480;2022-07-01T08:35:19;15.00;99.90
19007;DHT22;9636;47.382;8.480;2022-07-01T08:37:47;15.10;99.90
19007;DHT22;9636;47.382;8.480;2022-07-01T08:40:14;15.10;99.90
19007;DHT22;9636;47.382;8.480;2022-07-01T08:42:41;15.20;99.90
19007;DHT22;9636;47.382;8.480;2022-07-01T08:45:09;15.30;99.90
19007;DHT22;9636;47.382;8.480;2022-07-01T08:47:49;15.40;99.90
19007;DHT22;9636;47.382;8.480;2022-07-01T08:50:16;15.40;99.90
19007;DHT22;9636;47.382;8.480;2022-07-01T08:52:43;15.50;99.90
19007;DHT22;9636;47.382;8.480;2022-07-01T08:55:11;15.40;99.90
19007;DHT22;9636;47.382;8.480;2022-07-01T08:57:38;15.30;99.90
19007;DHT22;9636;47.382;8.480;2022-07-01T09:00:07;15.30;99.90
19007;DHT22;9636;47.382;8.480;2022-07-01T09:02:50;15.40;99.90
19007;DHT22;9636;47.382;8.480;2022-07-01T09:05:17;15.70;99.90
19007;DHT22;9636;47.382;8.480;2022-07-01T09:07:44;15.80;99.90
19007;DHT22;9636;47.382;8.480;2022-07-01T09:10:17;15.60;99.90
19007;DHT22;9636;47.382;8.480;2022-07-01T09:12:45;15.30;99.90
19007;DHT22;9636;47.382;8.480;2022-07-01T09:15:23;15.40;99.90
19007;DHT22;9636;47.382;8.480;2022-07-01T09:17:55;15.20;99.90
19007;DHT22;9636;47.382;8.480;2022-07-01T09:20:28;15.50;99.90
19007;DHT22;9636;47.382;8.480;2022-07-01T09:22:59;15.60;99.90
19007;DHT22;9636;47.382;8.480;2022-07-01T09:25:29;15.50;99.90
19007;DHT22;9636;47.382;8.480;2022-07-01T09:28:04;15.80;99.90
19007;DHT22;9636;47.382;8.480;2022-07-01T09:30:31;15.70;99.90
19007;DHT22;9636;47.382;8.480;2022-07-01T09:33:06;15.80;99.90
19007;DHT22;9636;47.382;8.480;2022-07-01T09:35:34;15.90;99.90
19007;DHT22;9636;47.382;8.480;2022-07-01T09:38:02;16.00;99.90
19007;DHT22;9636;47.382;8.480;2022-07-01T09:40:48;16.00;99.90
19007;DHT22;9636;47.382;8.480;2022-07-01T09:43:20;16.10;99.90
19007;DHT22;9636;47.382;8.480;2022-07-01T09:45:52;16.10;99.90
19007;DHT22;9636;47.382;8.480;2022-07-01T09:48:20;15.70;99.90
19007;DHT22;9636;47.382;8.480;2022-07-01T09:50:47;15.50;99.90
19007;DHT22;9636;47.382;8.480;2022-07-01T09:53:14;15.80;99.90
19007;DHT22;9636;47.382;8.480;2022-07-01T09:55:41;15.90;99.90
19007;DHT22;9636;47.382;8.480;2022-07-01T09:58:09;16.10;99.90
19007;DHT22;9636;47.382;8.480;2022-07-01T10:00:37;15.80;99.90
19007;DHT22;9636;47.382;8.480;2022-07-01T10:03:05;15.70;99.90
19007;DHT22;9636;47.382;8.480;2022-07-01T10:05:38;16.00;99.90
19007;DHT22;9636;47.382;8.480;2022-07-01T10:08:19;16.20;99.90
19007;DHT22;9636;47.382;8.480;2022-07-01T10:10:51;16.20;99.90
19007;DHT22;9636;47.382;8.480;2022-07-01T10:13:26;16.40;99.90
19007;DHT22;9636;47.382;8.480;2022-07-01T10:15:54;16.60;99.90
19007;DHT22;9636;47.382;8.480;2022-07-01T10:18:23;16.60;99.90
19007;DHT22;9636;47.382;8.480;2022-07-01T10:20:51;16.70;99.90
19007;DHT22;9636;47.382;8.480;2022-07-01T10:23:20;16.60;99.90
19007;DHT22;9636;47.382;8.480;2022-07-01T10:25:48;16.50;99.90
19007;DHT22;9636;47.382;8.480;2022-07-01T10:28:21;16.40;99.90
19007;DHT22;9636;47.382;8.480;2022-07-01T10:30:58;16.60;99.90
19007;DHT22;9636;47.382;8.480;2022-07-01T10:33:35;16.60;99.90
19007;DHT22;9636;47.382;8.480;2022-07-01T10:36:09;16.90;99.90
19007;DHT22;9636;47.382;8.480;2022-07-01T10:39:10;16.70;99.90
19007;DHT22;9636;47.382;8.480;2022-07-01T10:41:40;16.40;99.90
19007;DHT22;9636;47.382;8.480;2022-07-01T10:44:08;16.80;99.90
19007;DHT22;9636;47.382;8.480;2022-07-01T10:46:41;17.20;99.90
19007;DHT22;9636;47.382;8.480;2022-07-01T10:49:10;17.20;99.90
19007;DHT22;9636;47.382;8.480;2022-07-01T10:51:48;17.30;99.90
19007;DHT22;9636;47.382;8.480;2022-07-01T10:54:47;17.50;99.90
19007;DHT22;9636;47.382;8.480;2022-07-01T10:57:30;17.70;99.90
19007;DHT22;9636;47.382;8.480;2022-07-01T11:00:28;17.80;99.90
19007;DHT22;9636;47.382;8.480;2022-07-01T11:03:14;18.00;99.90
19007;DHT22;9636;47.382;8.480;2022-07-01T11:05:43;17.50;99.90
19007;DHT22;9636;47.382;8.480;2022-07-01T11:08:10;16.90;99.90
19007;DHT22;9636;47.382;8.480;2022-07-01T11:10:39;17.10;99.90
19007;DHT22;9636;47.382;8.480;2022-07-01T11:13:07;17.50;99.90
19007;DHT22;9636;47.382;8.480;2022-07-01T11:15:35;17.70;99.90
19007;DHT22;9636;47.382;8.480;2022-07-01T11:18:02;17.70;99.90
19007;DHT22;9636;47.382;8.480;2022-07-01T11:20:32;17.90;99.90
19007;DHT22;9636;47.382;8.480;2022-07-01T11:22:59;17.80;99.90
19007;DHT22;9636;47.382;8.480;2022-07-01T11:25:27;17.80;99.90
19007;DHT22;9636;47.382;8.480;2022-07-01T11:27:54;18.20;99.90
19007;DHT22;9636;47.382;8.480;2022-07-01T11:30:21;18.40;99.90
19007;DHT22;9636;47.382;8.480;2022-07-01T11:32:50;18.50;99.90
19007;DHT22;9636;47.382;8.480;2022-07-01T11:35:19;18.10;99.90
19007;DHT22;9636;47.382;8.480;2022-07-01T11:38:06;18.10;99.90
19007;DHT22;9636;47.382;8.480;2022-07-01T11:40:51;18.40;99.90
19007;DHT22;9636;47.382;8.480;2022-07-01T11:43:23;18.60;99.90
19007;DHT22;9636;47.382;8.480;2022-07-01T11:45:51;18.60;99.90
19007;DHT22;9636;47.382;8.480;2022-07-01T11:48:36;18.60;99.90
19007;DHT22;9636;47.382;8.480;2022-07-01T11:51:08;18.40;99.90
19007;DHT22;9636;47.382;8.480;2022-07-01T11:53:37;18.50;99.90
19007;DHT22;9636;47.382;8.480;2022-07-01T11:56:04;18.30;99.90
19007;DHT22;9636;47.382;8.480;2022-07-01T11:58:42;18.10;99.90
19007;DHT22;9636;47.382;8.480;2022-07-01T12:01:09;18.20;99.90
19007;DHT22;9636;47.382;8.480;2022-07-01T12:03:37;18.40;99.90
19007;DHT22;9636;47.382;8.480;2022-07-01T12:06:04;18.30;99.90
19007;DHT22;9636;47.382;8.480;2022-07-01T12:08:31;18.30;99.90
19007;DHT22;9636;47.382;8.480;2022-07-01T12:11:00;18.30;99.90
19007;DHT22;9636;47.382;8.480;2022-07-01T12:13:27;18.50;99.90
19007;DHT22;9636;47.382;8.480;2022-07-01T12:16:05;18.50;99.90
19007;DHT22;9636;47.382;8.480;2022-07-01T12:18:32;18.60;99.90
19007;DHT22;9636;47.382;8.480;2022-07-01T12:20:59;18.40;99.90
19007;DHT22;9636;47.382;8.480;2022-07-01T12:23:26;18.40;99.90
19007;DHT22;9636;47.382;8.480;2022-07-01T12:25:54;18.70;99.90
19007;DHT22;9636;47.382;8.480;2022-07-01T12:28:40;18.80;99.90
19007;DHT22;9636;47.382;8.480;2022-07-01T12:31:09;18.80;99.90
19007;DHT22;9636;47.382;8.480;2022-07-01T12:33:38;19.00;99.90
19007;DHT22;9636;47.382;8.480;2022-07-01T12:36:06;18.80;99.90
19007;DHT22;9636;47.382;8.480;2022-07-01T12:38:34;18.80;99.90
19007;DHT22;9636;47.382;8.480;2022-07-01T12:41:01;18.70;99.90
19007;DHT22;9636;47.382;8.480;2022-07-01T12:43:29;18.60;99.90
19007;DHT22;9636;47.382;8.480;2022-07-01T12:46:00;18.80;99.90
19007;DHT22;9636;47.382;8.480;2022-07-01T12:48:27;19.10;99.90
19007;DHT22;9636;47.382;8.480;2022-07-01T12:50:55;19.20;99.90
19007;DHT22;9636;47.382;8.480;2022-07-01T12:53:23;19.30;99.90
19007;DHT22;9636;47.382;8.480;2022-07-01T12:55:52;19.60;99.90
19007;DHT22;9636;47.382;8.480;2022-07-01T12:58:21;19.90;99.90
19007;DHT22;9636;47.382;8.480;2022-07-01T13:00:50;19.90;99.90
19007;DHT22;9636;47.382;8.480;2022-07-01T13:03:20;19.80;99.90
19007;DHT22;9636;47.382;8.480;2022-07-01T13:05:48;19.80;99.90
19007;DHT22;9636;47.382;8.480;2022-07-01T13:08:16;19.80;99.90
19007;DHT22;9636;47.382;8.480;2022-07-01T13:10:43;19.60;99.90
19007;DHT22;9636;47.382;8.480;2022-07-01T13:13:10;19.70;99.90
19007;DHT22;9636;47.382;8.480;2022-07-01T13:15:37;19.60;99.90
19007;DHT22;9636;47.382;8.480;2022-07-01T13:18:05;19.20;99.90
19007;DHT22;9636;47.382;8.480;2022-07-01T13:20:33;18.80;99.90
19007;DHT22;9636;47.382;8.480;2022-07-01T13:23:00;18.90;99.90
19007;DHT22;9636;47.382;8.480;2022-07-01T13:25:27;19.10;99.90
19007;DHT22;9636;47.382;8.480;2022-07-01T13:27:54;19.40;99.90
19007;DHT22;9636;47.382;8.480;2022-07-01T13:30:21;19.40;99.90
19007;DHT22;9636;47.382;8.480;2022-07-01T13:32:48;19.50;99.90
19007;DHT22;9636;47.382;8.480;2022-07-01T13:35:18;19.60;99.90
19007;DHT22;9636;47.382;8.480;2022-07-01T13:37:46;19.60;99.90
19007;DHT22;9636;47.382;8.480;2022-07-01T13:40:13;19.40;99.90
19007;DHT22;9636;47.382;8.480;2022-07-01T13:42:40;19.40;99.90
19007;DHT22;9636;47.382;8.480;2022-07-01T13:45:08;19.10;99.90
19007;DHT22;9636;47.382;8.480;2022-07-01T13:47:35;19.00;99.90
19007;DHT22;9636;47.382;8.480;2022-07-01T13:50:06;19.00;99.90
19007;DHT22;9636;47.382;8.480;2022-07-01T13:52:33;18.90;99.90
19007;DHT22;9636;47.382;8.480;2022-07-01T13:55:02;18.90;99.90
19007;DHT22;9636;47.382;8.480;2022-07-01T13:57:29;18.80;99.90
19007;DHT22;9636;47.382;8.480;2022-07-01T13:59:56;19.10;99.90
19007;DHT22;9636;47.382;8.480;2022-07-01T14:02:23;19.50;99.90
19007;DHT22;9636;47.382;8.480;2022-07-01T14:04:50;19.50;99.90
19007;DHT22;9636;47.382;8.480;2022-07-01T14:07:17;19.30;99.90
19007;DHT22;9636;47.382;8.480;2022-07-01T14:09:44;19.00;99.90
19007;DHT22;9636;47.382;8.480;2022-07-01T14:12:12;19.50;99.90
19007;DHT22;9636;47.382;8.480;2022-07-01T14:14:40;19.40;99.90
19007;DHT22;9636;47.382;8.480;2022-07-01T14:17:07;19.60;99.90
19007;DHT22;9636;47.382;8.480;2022-07-01T14:19:34;19.60;99.90
19007;DHT22;9636;47.382;8.480;2022-07-01T14:22:01;19.60;99.90
19007;DHT22;9636;47.382;8.480;2022-07-01T14:24:28;19.70;99.90
19007;DHT22;9636;47.382;8.480;2022-07-01T14:26:55;19.70;99.90
19007;DHT22;9636;47.382;8.480;2022-07-01T14:29:23;19.80;99.90
19007;DHT22;9636;47.382;8.480;2022-07-01T14:31:50;19.60;99.90
19007;DHT22;9636;47.382;8.480;2022-07-01T14:34:17;19.40;99.90
19007;DHT22;9636;47.382;8.480;2022-07-01T14:36:44;19.10;99.90
19007;DHT22;9636;47.382;8.480;2022-07-01T14:39:11;19.20;99.90
19007;DHT22;9636;47.382;8.480;2022-07-01T14:41:37;19.50;99.90
19007;DHT22;9636;47.382;8.480;2022-07-01T14:44:04;19.60;99.90
19007;DHT22;9636;47.382;8.480;2022-07-01T14:46:33;19.40;99.90
19007;DHT22;9636;47.382;8.480;2022-07-01T14:48:59;19.00;99.90
19007;DHT22;9636;47.382;8.480;2022-07-01T14:51:26;18.90;99.90
19007;DHT22;9636;47.382;8.480;2022-07-01T14:53:53;18.80;99.90
19007;DHT22;9636;47.382;8.480;2022-07-01T14:56:20;18.80;99.90
19007;DHT22;9636;47.382;8.480;2022-07-01T14:58:47;19.00;99.90
19007;DHT22;9636;47.382;8.480;2022-07-01T15:01:14;19.10;99.90
19007;DHT22;9636;47.382;8.480;2022-07-01T15:03:43;19.10;99.90
19007;DHT22;9636;47.382;8.480;2022-07-01T15:06:10;19.20;99.90
19007;DHT22;9636;47.382;8.480;2022-07-01T15:08:36;19.20;99.90
19007;DHT22;9636;47.382;8.480;2022-07-01T15:11:05;19.10;99.90
19007;DHT22;9636;47.382;8.480;2022-07-01T15:13:32;19.00;99.90
19007;DHT22;9636;47.382;8.480;2022-07-01T15:16:01;19.00;99.90
19007;DHT22;9636;47.382;8.480;2022-07-01T15:18:28;19.00;99.90
19007;DHT22;9636;47.382;8.480;2022-07-01T15:20:58;19.00;99.90
19007;DHT22;9636;47.382;8.480;2022-07-01T15:23:25;19.10;99.90
19007;DHT22;9636;47.382;8.480;2022-07-01T15:25:52;18.90;99.90
19007;DHT22;9636;47.382;8.480;2022-07-01T15:28:20;18.80;99.90
19007;DHT22;9636;47.382;8.480;2022-07-01T15:30:47;18.80;99.90
19007;DHT22;9636;47.382;8.480;2022-07-01T15:33:15;18.80;99.90
19007;DHT22;9636;47.382;8.480;2022-07-01T15:35:42;18.70;99.90
19007;DHT22;9636;47.382;8.480;2022-07-01T15:38:10;18.80;99.90
19007;DHT22;9636;47.382;8.480;2022-07-01T15:40:37;18.70;99.90
19007;DHT22;9636;47.382;8.480;2022-07-01T15:43:03;18.70;99.90
19007;DHT22;9636;47.382;8.480;2022-07-01T15:45:31;18.90;99.90
19007;DHT22;9636;47.382;8.480;2022-07-01T15:47:57;19.00;99.90
19007;DHT22;9636;47.382;8.480;2022-07-01T15:50:36;19.10;99.90
19007;DHT22;9636;47.382;8.480;2022-07-01T15:53:03;19.00;99.90